< < Back
Terminal Aerodrome Forecast


Current Version              Previous Versions:   1  2  3  4  5  6  7  8  9  

Terminal Aerodrome Forecast

255
FTUS42 KFFC 191333 CCA
TAFPDK
TAF COR
KPDK 191333Z 1914/2012 14006KT P6SM SCT005 BKN012
      TEMPO 1914/1918 VRB10G20KT 1SM TSRA BKN005CB
     FM191800 19010KT P6SM -SHRA BKN012 OVC025
      TEMPO 1920/1922 4SM -TSRA BKN010CB
     FM192200 22010KT P6SM VCSH BKN030
     FM200200 23006KT P6SM VCSH BKN015=



Latest METAR

716
SAUS70 KWBC 191400 RRH
MTRPDK
METAR KPDK 191353Z 14006KT 8SM OVC005 20/19 A2981 RMK AO2 RAE00 SLP086
P0000 T02000194


USA.gov is the U.S. government's official web portal to all federal, state and local government web resources and services.